Terminal Aerodrome Forecast
Issued by NWS

Home | Current Version | Previous Version | Graphics & Text | Print | Product List | Glossary On
Versions: 1 2 3 4 5 6 7 8 9 10 11 12 13 14 15 16 17 18 19 20 21 22 23
933
FTUS43 KABR 231138
TAFATY
TAF
KATY 231138Z 2312/2412 01010KT P6SM VCTS SCT004CB OVC006
     FM231500 03008KT P6SM -SHRA OVC008
     FM232000 04009KT 4SM SHRA BR OVC008
     FM241000 04008KT P6SM -SHRA OVC015=

USA.gov is the U.S. government's official web portal to all federal, state and local government web resources and services.